sensor_id;sensor_type;location;lat;lon;timestamp;P1;durP1;ratioP1;P2;durP2;ratioP2
47896;SDS011;39629;51.400;5.494;2023-02-02T00:02:41;18.60;;;1.88;;
47896;SDS011;39629;51.400;5.494;2023-02-02T00:07:43;8.93;;;1.55;;
47896;SDS011;39629;51.400;5.494;2023-02-02T00:12:44;9.65;;;1.67;;
47896;SDS011;39629;51.400;5.494;2023-02-02T00:17:47;14.25;;;2.35;;
47896;SDS011;39629;51.400;5.494;2023-02-02T00:22:49;15.80;;;1.85;;
47896;SDS011;39629;51.400;5.494;2023-02-02T00:27:51;9.00;;;1.58;;
47896;SDS011;39629;51.400;5.494;2023-02-02T00:32:54;12.75;;;1.85;;
47896;SDS011;39629;51.400;5.494;2023-02-02T00:37:57;16.92;;;3.10;;
47896;SDS011;39629;51.400;5.494;2023-02-02T00:42:58;13.48;;;2.22;;
47896;SDS011;39629;51.400;5.494;2023-02-02T00:48:01;18.15;;;2.67;;
47896;SDS011;39629;51.400;5.494;2023-02-02T00:53:03;11.60;;;1.87;;
47896;SDS011;39629;51.400;5.494;2023-02-02T00:58:05;9.63;;;1.95;;
47896;SDS011;39629;51.400;5.494;2023-02-02T01:03:08;9.43;;;1.85;;
47896;SDS011;39629;51.400;5.494;2023-02-02T01:08:10;13.68;;;1.77;;
47896;SDS011;39629;51.400;5.494;2023-02-02T01:13:13;16.90;;;2.08;;
47896;SDS011;39629;51.400;5.494;2023-02-02T01:18:17;13.38;;;1.58;;
47896;SDS011;39629;51.400;5.494;2023-02-02T01:23:19;10.23;;;1.67;;
47896;SDS011;39629;51.400;5.494;2023-02-02T01:28:20;10.68;;;2.15;;
47896;SDS011;39629;51.400;5.494;2023-02-02T01:33:23;13.80;;;2.00;;
47896;SDS011;39629;51.400;5.494;2023-02-02T01:38:25;13.50;;;2.60;;
47896;SDS011;39629;51.400;5.494;2023-02-02T01:43:28;13.95;;;1.80;;
47896;SDS011;39629;51.400;5.494;2023-02-02T01:48:32;17.10;;;2.27;;
47896;SDS011;39629;51.400;5.494;2023-02-02T01:53:35;17.45;;;2.08;;
47896;SDS011;39629;51.400;5.494;2023-02-02T01:58:38;12.05;;;1.60;;
47896;SDS011;39629;51.400;5.494;2023-02-02T02:03:44;9.43;;;2.00;;
47896;SDS011;39629;51.400;5.494;2023-02-02T02:08:47;14.63;;;2.15;;
47896;SDS011;39629;51.400;5.494;2023-02-02T02:13:53;16.88;;;1.90;;
47896;SDS011;39629;51.400;5.494;2023-02-02T02:19:23;8.63;;;1.67;;
47896;SDS011;39629;51.400;5.494;2023-02-02T02:25:13;13.82;;;2.13;;
47896;SDS011;39629;51.400;5.494;2023-02-02T02:30:56;13.15;;;2.35;;
47896;SDS011;39629;51.400;5.494;2023-02-02T02:36:14;18.77;;;2.22;;
47896;SDS011;39629;51.400;5.494;2023-02-02T02:41:20;13.05;;;2.15;;
47896;SDS011;39629;51.400;5.494;2023-02-02T02:46:26;14.63;;;2.33;;
47896;SDS011;39629;51.400;5.494;2023-02-02T02:57:06;16.90;;;2.60;;
47896;SDS011;39629;51.400;5.494;2023-02-02T03:02:26;15.00;;;2.50;;
47896;SDS011;39629;51.400;5.494;2023-02-02T03:07:39;14.43;;;1.80;;
47896;SDS011;39629;51.400;5.494;2023-02-02T03:12:44;13.68;;;1.77;;
47896;SDS011;39629;51.400;5.494;2023-02-02T03:17:47;14.68;;;2.40;;
47896;SDS011;39629;51.400;5.494;2023-02-02T03:22:53;9.52;;;1.80;;
47896;SDS011;39629;51.400;5.494;2023-02-02T03:27:55;12.10;;;1.80;;
47896;SDS011;39629;51.400;5.494;2023-02-02T03:32:57;12.80;;;2.40;;
47896;SDS011;39629;51.400;5.494;2023-02-02T03:38:00;12.35;;;1.85;;
47896;SDS011;39629;51.400;5.494;2023-02-02T03:43:02;13.93;;;2.13;;
47896;SDS011;39629;51.400;5.494;2023-02-02T03:48:04;8.85;;;1.52;;
47896;SDS011;39629;51.400;5.494;2023-02-02T03:53:08;15.50;;;1.73;;
47896;SDS011;39629;51.400;5.494;2023-02-02T03:58:10;11.02;;;1.83;;
47896;SDS011;39629;51.400;5.494;2023-02-02T04:03:11;13.65;;;2.17;;
47896;SDS011;39629;51.400;5.494;2023-02-02T04:08:14;15.85;;;2.08;;
47896;SDS011;39629;51.400;5.494;2023-02-02T04:13:16;15.13;;;1.95;;
47896;SDS011;39629;51.400;5.494;2023-02-02T04:18:17;13.00;;;1.67;;
47896;SDS011;39629;51.400;5.494;2023-02-02T04:23:20;12.90;;;1.73;;
47896;SDS011;39629;51.400;5.494;2023-02-02T04:28:22;13.32;;;1.70;;
47896;SDS011;39629;51.400;5.494;2023-02-02T04:33:26;16.40;;;2.33;;
47896;SDS011;39629;51.400;5.494;2023-02-02T04:38:29;7.45;;;2.22;;
47896;SDS011;39629;51.400;5.494;2023-02-02T04:43:32;8.93;;;1.73;;
47896;SDS011;39629;51.400;5.494;2023-02-02T04:48:34;16.10;;;1.70;;
47896;SDS011;39629;51.400;5.494;2023-02-02T04:53:37;15.27;;;2.05;;
47896;SDS011;39629;51.400;5.494;2023-02-02T04:58:39;12.40;;;1.98;;
47896;SDS011;39629;51.400;5.494;2023-02-02T05:03:42;12.80;;;1.50;;
47896;SDS011;39629;51.400;5.494;2023-02-02T05:08:45;17.02;;;1.83;;
47896;SDS011;39629;51.400;5.494;2023-02-02T05:13:48;11.30;;;1.52;;
47896;SDS011;39629;51.400;5.494;2023-02-02T05:18:51;19.50;;;2.40;;
47896;SDS011;39629;51.400;5.494;2023-02-02T05:23:56;11.25;;;1.80;;
47896;SDS011;39629;51.400;5.494;2023-02-02T05:28:58;8.13;;;1.48;;
47896;SDS011;39629;51.400;5.494;2023-02-02T05:34:00;15.65;;;1.77;;
47896;SDS011;39629;51.400;5.494;2023-02-02T05:39:03;11.23;;;1.58;;
47896;SDS011;39629;51.400;5.494;2023-02-02T05:44:05;10.65;;;2.35;;
47896;SDS011;39629;51.400;5.494;2023-02-02T05:49:07;11.52;;;2.00;;
47896;SDS011;39629;51.400;5.494;2023-02-02T05:54:14;12.35;;;2.13;;
47896;SDS011;39629;51.400;5.494;2023-02-02T05:59:19;14.25;;;1.85;;
47896;SDS011;39629;51.400;5.494;2023-02-02T06:04:21;8.43;;;1.73;;
47896;SDS011;39629;51.400;5.494;2023-02-02T06:09:24;16.35;;;1.92;;
47896;SDS011;39629;51.400;5.494;2023-02-02T06:14:26;14.30;;;2.25;;
47896;SDS011;39629;51.400;5.494;2023-02-02T06:19:27;12.10;;;2.08;;
47896;SDS011;39629;51.400;5.494;2023-02-02T06:24:30;10.63;;;1.75;;
47896;SDS011;39629;51.400;5.494;2023-02-02T06:29:32;16.63;;;1.98;;
47896;SDS011;39629;51.400;5.494;2023-02-02T06:34:34;10.75;;;2.03;;
47896;SDS011;39629;51.400;5.494;2023-02-02T06:39:37;12.10;;;1.70;;
47896;SDS011;39629;51.400;5.494;2023-02-02T06:44:38;12.27;;;1.80;;
47896;SDS011;39629;51.400;5.494;2023-02-02T06:49:40;10.00;;;1.85;;
47896;SDS011;39629;51.400;5.494;2023-02-02T06:54:43;10.25;;;1.83;;
47896;SDS011;39629;51.400;5.494;2023-02-02T06:59:44;14.90;;;2.63;;
47896;SDS011;39629;51.400;5.494;2023-02-02T07:04:46;10.80;;;1.70;;
47896;SDS011;39629;51.400;5.494;2023-02-02T07:09:49;8.38;;;1.65;;
47896;SDS011;39629;51.400;5.494;2023-02-02T07:14:50;11.55;;;2.25;;
47896;SDS011;39629;51.400;5.494;2023-02-02T07:19:52;11.65;;;2.10;;
47896;SDS011;39629;51.400;5.494;2023-02-02T07:24:55;12.27;;;1.83;;
47896;SDS011;39629;51.400;5.494;2023-02-02T07:29:57;11.02;;;1.80;;
47896;SDS011;39629;51.400;5.494;2023-02-02T07:34:58;8.57;;;1.90;;
47896;SDS011;39629;51.400;5.494;2023-02-02T07:40:01;7.30;;;2.05;;
47896;SDS011;39629;51.400;5.494;2023-02-02T07:45:03;10.25;;;1.70;;
47896;SDS011;39629;51.400;5.494;2023-02-02T07:50:06;11.20;;;2.00;;
47896;SDS011;39629;51.400;5.494;2023-02-02T07:55:09;10.13;;;2.10;;
47896;SDS011;39629;51.400;5.494;2023-02-02T08:00:11;16.90;;;2.05;;
47896;SDS011;39629;51.400;5.494;2023-02-02T08:05:14;11.90;;;2.00;;
47896;SDS011;39629;51.400;5.494;2023-02-02T08:10:17;6.07;;;1.48;;
47896;SDS011;39629;51.400;5.494;2023-02-02T08:15:18;7.95;;;1.60;;
47896;SDS011;39629;51.400;5.494;2023-02-02T08:20:20;10.23;;;1.90;;
47896;SDS011;39629;51.400;5.494;2023-02-02T08:25:23;10.85;;;2.00;;
47896;SDS011;39629;51.400;5.494;2023-02-02T08:30:25;10.20;;;1.65;;
47896;SDS011;39629;51.400;5.494;2023-02-02T08:35:27;9.73;;;1.60;;
47896;SDS011;39629;51.400;5.494;2023-02-02T08:40:30;13.35;;;1.98;;
47896;SDS011;39629;51.400;5.494;2023-02-02T08:45:32;11.00;;;1.70;;
47896;SDS011;39629;51.400;5.494;2023-02-02T08:50:34;11.65;;;1.75;;
47896;SDS011;39629;51.400;5.494;2023-02-02T08:55:36;8.52;;;1.30;;
47896;SDS011;39629;51.400;5.494;2023-02-02T09:00:38;11.18;;;1.67;;
47896;SDS011;39629;51.400;5.494;2023-02-02T09:05:40;7.95;;;1.63;;
47896;SDS011;39629;51.400;5.494;2023-02-02T09:10:43;7.68;;;1.55;;
47896;SDS011;39629;51.400;5.494;2023-02-02T09:15:44;6.60;;;1.38;;
47896;SDS011;39629;51.400;5.494;2023-02-02T09:20:46;7.13;;;1.13;;
47896;SDS011;39629;51.400;5.494;2023-02-02T09:25:49;7.97;;;1.38;;
47896;SDS011;39629;51.400;5.494;2023-02-02T09:30:50;10.23;;;1.60;;
47896;SDS011;39629;51.400;5.494;2023-02-02T09:35:52;11.85;;;1.70;;
47896;SDS011;39629;51.400;5.494;2023-02-02T09:40:55;12.93;;;1.85;;
47896;SDS011;39629;51.400;5.494;2023-02-02T09:45:58;11.75;;;1.63;;
47896;SDS011;39629;51.400;5.494;2023-02-02T09:51:11;7.13;;;1.40;;
47896;SDS011;39629;51.400;5.494;2023-02-02T09:56:20;9.60;;;1.75;;
47896;SDS011;39629;51.400;5.494;2023-02-02T10:01:25;10.10;;;1.60;;
47896;SDS011;39629;51.400;5.494;2023-02-02T10:06:32;11.40;;;1.83;;
47896;SDS011;39629;51.400;5.494;2023-02-02T10:11:40;11.80;;;1.30;;
47896;SDS011;39629;51.400;5.494;2023-02-02T10:16:47;8.95;;;1.38;;
47896;SDS011;39629;51.400;5.494;2023-02-02T10:21:53;13.57;;;1.95;;
47896;SDS011;39629;51.400;5.494;2023-02-02T10:27:05;9.40;;;2.03;;
47896;SDS011;39629;51.400;5.494;2023-02-02T10:32:13;6.50;;;1.60;;
47896;SDS011;39629;51.400;5.494;2023-02-02T10:37:25;11.10;;;1.63;;
47896;SDS011;39629;51.400;5.494;2023-02-02T10:42:34;8.57;;;1.80;;
47896;SDS011;39629;51.400;5.494;2023-02-02T10:47:44;11.57;;;1.80;;
47896;SDS011;39629;51.400;5.494;2023-02-02T10:52:47;10.93;;;1.83;;
47896;SDS011;39629;51.400;5.494;2023-02-02T10:57:56;8.30;;;1.77;;
47896;SDS011;39629;51.400;5.494;2023-02-02T11:03:04;11.48;;;1.75;;
47896;SDS011;39629;51.400;5.494;2023-02-02T11:08:14;9.30;;;1.67;;
47896;SDS011;39629;51.400;5.494;2023-02-02T11:13:20;12.60;;;1.70;;
47896;SDS011;39629;51.400;5.494;2023-02-02T11:18:28;10.65;;;1.98;;
47896;SDS011;39629;51.400;5.494;2023-02-02T11:23:31;6.68;;;1.63;;
47896;SDS011;39629;51.400;5.494;2023-02-02T11:28:34;8.02;;;1.50;;
47896;SDS011;39629;51.400;5.494;2023-02-02T11:33:36;11.50;;;2.00;;
47896;SDS011;39629;51.400;5.494;2023-02-02T11:38:37;9.13;;;1.80;;
47896;SDS011;39629;51.400;5.494;2023-02-02T11:43:46;6.20;;;1.30;;
47896;SDS011;39629;51.400;5.494;2023-02-02T11:48:53;8.07;;;1.45;;
47896;SDS011;39629;51.400;5.494;2023-02-02T11:54:00;7.82;;;1.70;;
47896;SDS011;39629;51.400;5.494;2023-02-02T11:59:10;8.48;;;1.23;;
47896;SDS011;39629;51.400;5.494;2023-02-02T12:04:28;9.38;;;1.40;;
47896;SDS011;39629;51.400;5.494;2023-02-02T12:09:30;11.57;;;1.45;;
47896;SDS011;39629;51.400;5.494;2023-02-02T12:14:36;9.05;;;1.35;;
47896;SDS011;39629;51.400;5.494;2023-02-02T12:20:00;5.78;;;1.38;;
47896;SDS011;39629;51.400;5.494;2023-02-02T12:25:22;6.97;;;1.70;;
47896;SDS011;39629;51.400;5.494;2023-02-02T12:30:42;11.23;;;1.58;;
47896;SDS011;39629;51.400;5.494;2023-02-02T12:35:57;10.90;;;1.90;;
47896;SDS011;39629;51.400;5.494;2023-02-02T12:41:22;7.10;;;1.90;;
47896;SDS011;39629;51.400;5.494;2023-02-02T12:46:40;10.38;;;2.05;;
47896;SDS011;39629;51.400;5.494;2023-02-02T12:52:01;6.32;;;1.38;;
47896;SDS011;39629;51.400;5.494;2023-02-02T12:57:14;9.15;;;1.48;;
47896;SDS011;39629;51.400;5.494;2023-02-02T13:02:24;10.43;;;1.85;;
47896;SDS011;39629;51.400;5.494;2023-02-02T13:07:37;10.07;;;1.77;;
47896;SDS011;39629;51.400;5.494;2023-02-02T13:12:42;6.15;;;1.65;;
47896;SDS011;39629;51.400;5.494;2023-02-02T13:17:50;11.38;;;1.60;;
47896;SDS011;39629;51.400;5.494;2023-02-02T13:22:55;7.50;;;1.50;;
47896;SDS011;39629;51.400;5.494;2023-02-02T13:28:00;9.65;;;1.50;;
47896;SDS011;39629;51.400;5.494;2023-02-02T13:33:10;10.02;;;1.98;;
47896;SDS011;39629;51.400;5.494;2023-02-02T13:38:17;7.35;;;1.50;;
47896;SDS011;39629;51.400;5.494;2023-02-02T13:43:33;6.53;;;1.50;;
47896;SDS011;39629;51.400;5.494;2023-02-02T13:48:45;7.53;;;1.60;;
47896;SDS011;39629;51.400;5.494;2023-02-02T13:54:05;10.50;;;2.22;;
47896;SDS011;39629;51.400;5.494;2023-02-02T13:59:30;5.15;;;1.27;;
47896;SDS011;39629;51.400;5.494;2023-02-02T14:04:52;4.47;;;1.50;;
47896;SDS011;39629;51.400;5.494;2023-02-02T14:09:55;5.40;;;1.38;;
47896;SDS011;39629;51.400;5.494;2023-02-02T14:14:56;7.47;;;1.60;;
47896;SDS011;39629;51.400;5.494;2023-02-02T14:20:00;4.18;;;1.45;;
47896;SDS011;39629;51.400;5.494;2023-02-02T14:25:06;5.70;;;1.40;;
47896;SDS011;39629;51.400;5.494;2023-02-02T14:30:45;5.47;;;1.40;;
47896;SDS011;39629;51.400;5.494;2023-02-02T14:36:32;5.85;;;1.42;;
47896;SDS011;39629;51.400;5.494;2023-02-02T14:41:43;6.43;;;1.50;;
47896;SDS011;39629;51.400;5.494;2023-02-02T14:52:43;7.63;;;1.60;;
47896;SDS011;39629;51.400;5.494;2023-02-02T14:57:51;4.97;;;1.33;;
47896;SDS011;39629;51.400;5.494;2023-02-02T15:02:55;6.80;;;1.50;;
47896;SDS011;39629;51.400;5.494;2023-02-02T15:08:05;5.70;;;1.63;;
47896;SDS011;39629;51.400;5.494;2023-02-02T15:13:14;3.80;;;1.40;;
47896;SDS011;39629;51.400;5.494;2023-02-02T15:18:20;8.00;;;2.08;;
47896;SDS011;39629;51.400;5.494;2023-02-02T15:23:30;5.32;;;1.90;;
47896;SDS011;39629;51.400;5.494;2023-02-02T15:28:37;6.47;;;2.00;;
47896;SDS011;39629;51.400;5.494;2023-02-02T15:33:44;6.15;;;2.30;;
47896;SDS011;39629;51.400;5.494;2023-02-02T15:38:51;6.43;;;1.83;;
47896;SDS011;39629;51.400;5.494;2023-02-02T15:43:55;8.30;;;2.33;;
47896;SDS011;39629;51.400;5.494;2023-02-02T15:49:20;7.57;;;2.03;;
47896;SDS011;39629;51.400;5.494;2023-02-02T15:54:29;4.70;;;1.95;;
47896;SDS011;39629;51.400;5.494;2023-02-02T15:59:37;8.15;;;2.42;;
47896;SDS011;39629;51.400;5.494;2023-02-02T16:04:42;5.75;;;2.33;;
47896;SDS011;39629;51.400;5.494;2023-02-02T16:09:46;10.95;;;3.03;;
47896;SDS011;39629;51.400;5.494;2023-02-02T16:14:48;5.95;;;2.60;;
47896;SDS011;39629;51.400;5.494;2023-02-02T16:19:55;6.65;;;2.67;;
47896;SDS011;39629;51.400;5.494;2023-02-02T16:25:01;9.02;;;2.60;;
47896;SDS011;39629;51.400;5.494;2023-02-02T16:30:07;5.47;;;2.80;;
47896;SDS011;39629;51.400;5.494;2023-02-02T16:35:28;7.43;;;2.88;;
47896;SDS011;39629;51.400;5.494;2023-02-02T16:40:33;6.10;;;3.10;;
47896;SDS011;39629;51.400;5.494;2023-02-02T16:45:38;10.48;;;3.10;;
47896;SDS011;39629;51.400;5.494;2023-02-02T16:50:46;7.70;;;2.88;;
47896;SDS011;39629;51.400;5.494;2023-02-02T16:56:04;8.85;;;3.20;;
47896;SDS011;39629;51.400;5.494;2023-02-02T17:01:07;7.63;;;3.03;;
47896;SDS011;39629;51.400;5.494;2023-02-02T17:06:11;7.15;;;2.70;;
47896;SDS011;39629;51.400;5.494;2023-02-02T17:11:21;8.77;;;2.92;;
47896;SDS011;39629;51.400;5.494;2023-02-02T17:16:24;8.93;;;2.88;;
47896;SDS011;39629;51.400;5.494;2023-02-02T17:21:26;9.82;;;3.30;;
47896;SDS011;39629;51.400;5.494;2023-02-02T17:26:29;9.75;;;3.00;;
47896;SDS011;39629;51.400;5.494;2023-02-02T17:31:30;7.30;;;3.50;;
47896;SDS011;39629;51.400;5.494;2023-02-02T17:36:32;6.03;;;3.00;;
47896;SDS011;39629;51.400;5.494;2023-02-02T17:41:35;6.10;;;2.80;;
47896;SDS011;39629;51.400;5.494;2023-02-02T17:46:38;7.45;;;2.90;;
47896;SDS011;39629;51.400;5.494;2023-02-02T17:51:39;7.68;;;2.97;;
47896;SDS011;39629;51.400;5.494;2023-02-02T17:56:43;6.40;;;2.42;;
47896;SDS011;39629;51.400;5.494;2023-02-02T18:01:46;10.35;;;4.25;;
47896;SDS011;39629;51.400;5.494;2023-02-02T18:06:48;7.03;;;3.33;;
47896;SDS011;39629;51.400;5.494;2023-02-02T18:11:51;9.80;;;3.78;;
47896;SDS011;39629;51.400;5.494;2023-02-02T18:16:52;6.50;;;3.70;;
47896;SDS011;39629;51.400;5.494;2023-02-02T18:21:55;11.25;;;4.10;;
47896;SDS011;39629;51.400;5.494;2023-02-02T18:26:58;12.98;;;4.38;;
47896;SDS011;39629;51.400;5.494;2023-02-02T18:32:00;8.43;;;4.65;;
47896;SDS011;39629;51.400;5.494;2023-02-02T18:37:02;10.80;;;4.57;;
47896;SDS011;39629;51.400;5.494;2023-02-02T18:42:05;8.80;;;5.15;;
47896;SDS011;39629;51.400;5.494;2023-02-02T18:47:07;9.23;;;4.43;;
47896;SDS011;39629;51.400;5.494;2023-02-02T18:52:08;8.63;;;4.50;;
47896;SDS011;39629;51.400;5.494;2023-02-02T18:57:11;11.82;;;4.97;;
47896;SDS011;39629;51.400;5.494;2023-02-02T19:02:14;15.23;;;5.30;;
47896;SDS011;39629;51.400;5.494;2023-02-02T19:07:17;12.35;;;5.40;;
47896;SDS011;39629;51.400;5.494;2023-02-02T19:12:38;10.50;;;4.40;;
47896;SDS011;39629;51.400;5.494;2023-02-02T19:17:40;10.90;;;5.00;;
47896;SDS011;39629;51.400;5.494;2023-02-02T19:22:41;11.80;;;5.00;;
47896;SDS011;39629;51.400;5.494;2023-02-02T19:27:45;11.98;;;5.25;;
47896;SDS011;39629;51.400;5.494;2023-02-02T19:32:46;11.10;;;5.10;;
47896;SDS011;39629;51.400;5.494;2023-02-02T19:37:48;9.82;;;4.95;;
47896;SDS011;39629;51.400;5.494;2023-02-02T19:43:06;8.13;;;4.75;;
47896;SDS011;39629;51.400;5.494;2023-02-02T19:48:24;7.78;;;4.38;;
47896;SDS011;39629;51.400;5.494;2023-02-02T19:53:30;10.20;;;4.80;;
47896;SDS011;39629;51.400;5.494;2023-02-02T19:58:38;10.90;;;4.95;;
47896;SDS011;39629;51.400;5.494;2023-02-02T20:03:40;9.80;;;4.97;;
47896;SDS011;39629;51.400;5.494;2023-02-02T20:08:45;9.10;;;5.10;;
47896;SDS011;39629;51.400;5.494;2023-02-02T20:13:48;11.07;;;5.35;;
47896;SDS011;39629;51.400;5.494;2023-02-02T20:18:51;11.55;;;5.30;;
47896;SDS011;39629;51.400;5.494;2023-02-02T20:23:55;12.85;;;5.30;;
47896;SDS011;39629;51.400;5.494;2023-02-02T20:28:59;11.07;;;5.55;;
47896;SDS011;39629;51.400;5.494;2023-02-02T20:34:07;9.15;;;4.90;;
47896;SDS011;39629;51.400;5.494;2023-02-02T20:39:25;11.35;;;4.80;;
47896;SDS011;39629;51.400;5.494;2023-02-02T20:44:34;12.85;;;5.88;;
47896;SDS011;39629;51.400;5.494;2023-02-02T20:49:36;17.20;;;6.93;;
47896;SDS011;39629;51.400;5.494;2023-02-02T20:54:38;15.48;;;7.03;;
47896;SDS011;39629;51.400;5.494;2023-02-02T20:59:41;13.73;;;6.43;;
47896;SDS011;39629;51.400;5.494;2023-02-02T21:04:44;15.85;;;6.40;;
47896;SDS011;39629;51.400;5.494;2023-02-02T21:09:47;14.30;;;7.05;;
47896;SDS011;39629;51.400;5.494;2023-02-02T21:14:52;12.52;;;6.30;;
47896;SDS011;39629;51.400;5.494;2023-02-02T21:19:54;11.98;;;6.35;;
47896;SDS011;39629;51.400;5.494;2023-02-02T21:24:56;14.25;;;6.30;;
47896;SDS011;39629;51.400;5.494;2023-02-02T21:29:58;9.45;;;5.20;;
47896;SDS011;39629;51.400;5.494;2023-02-02T21:35:00;11.65;;;5.70;;
47896;SDS011;39629;51.400;5.494;2023-02-02T21:40:05;14.10;;;6.35;;
47896;SDS011;39629;51.400;5.494;2023-02-02T21:45:33;10.77;;;5.07;;
47896;SDS011;39629;51.400;5.494;2023-02-02T21:50:36;12.02;;;5.47;;
47896;SDS011;39629;51.400;5.494;2023-02-02T21:55:42;9.20;;;4.95;;
47896;SDS011;39629;51.400;5.494;2023-02-02T22:00:46;9.15;;;4.72;;
47896;SDS011;39629;51.400;5.494;2023-02-02T22:05:48;14.02;;;5.05;;
47896;SDS011;39629;51.400;5.494;2023-02-02T22:10:50;9.32;;;4.70;;
47896;SDS011;39629;51.400;5.494;2023-02-02T22:15:53;12.13;;;4.70;;
47896;SDS011;39629;51.400;5.494;2023-02-02T22:20:54;10.75;;;4.82;;
47896;SDS011;39629;51.400;5.494;2023-02-02T22:25:56;13.23;;;4.72;;
47896;SDS011;39629;51.400;5.494;2023-02-02T22:31:00;11.45;;;4.35;;
47896;SDS011;39629;51.400;5.494;2023-02-02T22:36:01;10.85;;;4.05;;
47896;SDS011;39629;51.400;5.494;2023-02-02T22:41:03;10.98;;;4.18;;
47896;SDS011;39629;51.400;5.494;2023-02-02T22:46:06;11.18;;;4.20;;
47896;SDS011;39629;51.400;5.494;2023-02-02T22:51:08;10.27;;;4.18;;
47896;SDS011;39629;51.400;5.494;2023-02-02T22:56:09;13.30;;;4.05;;
47896;SDS011;39629;51.400;5.494;2023-02-02T23:01:12;14.18;;;4.75;;
47896;SDS011;39629;51.400;5.494;2023-02-02T23:06:14;9.45;;;3.83;;
47896;SDS011;39629;51.400;5.494;2023-02-02T23:11:16;9.45;;;4.50;;
47896;SDS011;39629;51.400;5.494;2023-02-02T23:16:19;11.73;;;4.20;;
47896;SDS011;39629;51.400;5.494;2023-02-02T23:21:20;11.13;;;4.43;;
47896;SDS011;39629;51.400;5.494;2023-02-02T23:26:22;9.68;;;4.30;;
47896;SDS011;39629;51.400;5.494;2023-02-02T23:31:25;8.32;;;4.40;;
47896;SDS011;39629;51.400;5.494;2023-02-02T23:36:27;11.35;;;4.78;;
47896;SDS011;39629;51.400;5.494;2023-02-02T23:41:28;10.75;;;4.85;;
47896;SDS011;39629;51.400;5.494;2023-02-02T23:46:31;10.88;;;5.10;;
47896;SDS011;39629;51.400;5.494;2023-02-02T23:51:33;10.98;;;4.68;;
47896;SDS011;39629;51.400;5.494;2023-02-02T23:56:35;10.43;;;5.28;;
